Time,TemperatureF,DewpointF,PressureIn,WindDirection,WindDirectionDegrees,WindSpeedMPH,WindSpeedGustMPH,Humidity,HourlyPrecipIn,Conditions,Clouds,dailyrainin,SoftwareType,DateUTC
2013-01-22 00:00:00,31.4,18.7,30.08,ESE,107,2.0,2.0,59,0.00,,OVC055,0.00,VWS V14.01,2013-01-22 05:00:00,
2013-01-22 00:01:00,31.4,18.7,30.07,ESE,107,1.0,2.0,59,0.00,,OVC055,0.00,VWS V14.01,2013-01-22 05:01:00,
2013-01-22 00:03:00,31.4,18.4,30.08,ESE,107,0.0,2.0,58,0.00,,OVC055,0.00,VWS V14.01,2013-01-22 05:03:00,
2013-01-22 00:08:00,31.3,17.9,30.07,ESE,107,1.0,2.0,57,0.00,,OVC055,0.00,VWS V14.01,2013-01-22 05:08:00,
2013-01-22 00:13:00,31.3,17.4,30.07,ESE,107,0.0,2.0,56,0.00,,OVC055,0.00,VWS V14.01,2013-01-22 05:13:00,
2013-01-22 00:18:00,31.1,18.5,30.07,ESE,107,0.0,2.0,59,0.00,,OVC055,0.00,VWS V14.01,2013-01-22 05:18:00,
2013-01-22 00:23:00,30.6,19.9,30.07,ESE,107,0.0,2.0,64,0.00,,OVC055,0.00,VWS V14.01,2013-01-22 05:23:00,
2013-01-22 00:28:00,30.1,17.9,30.07,ESE,107,0.0,2.0,60,0.00,,OVC055,0.00,VWS V14.01,2013-01-22 05:28:00,
2013-01-22 00:30:00,30.1,18.3,30.07,ESE,107,0.0,2.0,61,0.00,,OVC055,0.00,VWS V14.01,2013-01-22 05:30:00,
2013-01-22 00:33:00,29.8,18.0,30.07,ESE,107,0.0,1.0,61,0.00,,OVC055,0.00,VWS V14.01,2013-01-22 05:33:00,
2013-01-22 00:38:00,29.8,18.8,30.07,ESE,115,0.0,2.0,63,0.00,,OVC055,0.00,VWS V14.01,2013-01-22 05:38:00,
2013-01-22 00:43:00,29.6,20.7,30.07,ESE,112,0.0,2.0,69,0.00,,OVC055,0.00,VWS V14.01,2013-01-22 05:43:00,
2013-01-22 00:48:00,29.3,19.4,30.07,ESE,112,1.0,2.0,66,0.00,,OVC055,0.00,VWS V14.01,2013-01-22 05:48:00,
2013-01-22 00:53:00,29.4,19.8,30.06,ESE,112,0.0,2.0,67,0.00,,OVC055,0.00,VWS V14.01,2013-01-22 05:53:00,
2013-01-22 00:58:00,29.4,19.8,30.07,ESE,112,0.0,2.0,67,0.00,,OVC055,0.00,VWS V14.01,2013-01-22 05:58:00,
2013-01-22 01:00:00,29.4,19.8,30.07,ESE,112,0.0,2.0,67,0.00,,OVC055,0.00,VWS V14.01,2013-01-22 06:00:00,
2013-01-22 01:03:00,29.2,20.0,30.07,ESE,112,0.0,0.0,68,0.00,,OVC055,0.00,VWS V14.01,2013-01-22 06:03:00,
2013-01-22 01:08:00,29.0,19.8,30.07,ESE,112,1.0,1.0,68,0.00,,OVC055,0.00,VWS V14.01,2013-01-22 06:08:00,
2013-01-22 01:13:00,28.6,20.4,30.07,ESE,111,2.0,3.0,71,0.00,,OVC055,0.00,VWS V14.01,2013-01-22 06:13:00,
2013-01-22 01:18:00,28.4,20.2,30.07,ESE,111,0.0,3.0,71,0.00,,OVC055,0.00,VWS V14.01,2013-01-22 06:18:00,
2013-01-22 01:23:00,28.4,20.2,30.07,ESE,111,0.0,3.0,71,0.00,,OVC055,0.00,VWS V14.01,2013-01-22 06:23:00,
2013-01-22 01:28:00,28.1,20.9,30.07,NNE,28,3.0,3.0,74,0.00,,OVC055,0.00,VWS V14.01,2013-01-22 06:28:00,
2013-01-22 01:30:00,27.9,20.7,30.06,NNE,28,1.0,3.0,74,0.00,,OVC055,0.00,VWS V14.01,2013-01-22 06:30:00,
2013-01-22 01:33:00,28.0,20.5,30.07,NNE,28,0.0,1.0,73,0.00,,OVC055,0.00,VWS V14.01,2013-01-22 06:33:00,
2013-01-22 01:38:00,28.1,20.6,30.06,NNE,28,0.0,1.0,73,0.00,,OVC055,0.00,VWS V14.01,2013-01-22 06:38:00,
2013-01-22 01:43:00,28.1,20.2,30.06,NNE,28,0.0,1.0,72,0.00,,OVC055,0.00,VWS V14.01,2013-01-22 06:43:00,
2013-01-22 01:48:00,28.2,20.7,30.06,NNE,28,0.0,1.0,73,0.00,,OVC055,0.00,VWS V14.01,2013-01-22 06:48:00,
2013-01-22 01:53:00,28.2,21.3,30.07,NNE,28,0.0,1.0,75,0.00,,OVC055,0.00,VWS V14.01,2013-01-22 06:53:00,
2013-01-22 01:58:00,28.1,20.9,30.07,NNE,28,0.0,1.0,74,0.00,,OVC055,0.00,VWS V14.01,2013-01-22 06:58:00,
2013-01-22 02:00:00,28.0,20.5,30.07,NNE,28,0.0,1.0,73,0.00,,OVC055,0.00,VWS V14.01,2013-01-22 07:00:00,
2013-01-22 02:03:00,28.0,20.5,30.07,NNE,28,0.0,1.0,73,0.00,,OVC055,0.00,VWS V14.01,2013-01-22 07:03:00,
2013-01-22 02:08:00,27.8,21.2,30.08,NNE,28,0.0,3.0,76,0.00,,OVC055,0.00,VWS V14.01,2013-01-22 07:08:00,
2013-01-22 02:13:00,27.4,20.8,30.08,NNE,28,0.0,3.0,76,0.00,,OVC055,0.00,VWS V14.01,2013-01-22 07:13:00,
2013-01-22 02:18:00,27.4,20.2,30.08,NNE,28,1.0,3.0,74,0.00,,OVC055,0.00,VWS V14.01,2013-01-22 07:18:00,
2013-01-22 02:23:00,27.6,20.7,30.08,NNE,28,2.0,3.0,75,0.00,,OVC055,0.00,VWS V14.01,2013-01-22 07:23:00,
2013-01-22 02:28:00,27.8,20.9,30.08,NNE,28,1.0,3.0,75,0.00,,OVC055,0.00,VWS V14.01,2013-01-22 07:28:00,
2013-01-22 02:30:00,27.8,21.2,30.08,NNE,28,1.0,3.0,76,0.00,,OVC055,0.00,VWS V14.01,2013-01-22 07:30:00,
2013-01-22 02:33:00,27.7,21.4,30.08,NNE,28,0.0,1.0,77,0.00,,OVC055,0.00,VWS V14.01,2013-01-22 07:33:00,
2013-01-22 02:38:00,27.4,21.1,30.08,NNE,28,0.0,1.0,77,0.00,,OVC055,0.00,VWS V14.01,2013-01-22 07:38:00,
2013-01-22 02:43:00,27.2,21.0,30.08,NNE,28,1.0,2.0,77,0.00,,OVC055,0.00,VWS V14.01,2013-01-22 07:43:00,
2013-01-22 02:48:00,27.0,21.1,30.07,East,96,0.0,2.0,78,0.00,,OVC055,0.00,VWS V14.01,2013-01-22 07:48:00,
2013-01-22 02:53:00,26.9,21.3,30.07,East,96,1.0,2.0,79,0.00,,OVC055,0.00,VWS V14.01,2013-01-22 07:53:00,
2013-01-22 02:58:00,26.9,21.3,30.09,NNE,14,2.0,3.0,79,0.00,,OVC055,0.00,VWS V14.01,2013-01-22 07:58:00,
2013-01-22 03:00:00,26.8,21.5,30.09,NNE,14,0.0,3.0,80,0.00,,OVC055,0.00,VWS V14.01,2013-01-22 08:00:00,
2013-01-22 03:03:00,26.7,21.1,30.09,NNE,15,1.0,2.0,79,0.00,,OVC055,0.00,VWS V14.01,2013-01-22 08:03:00,
2013-01-22 03:08:00,26.8,21.2,30.09,North,355,1.0,3.0,79,0.00,,OVC055,0.00,VWS V14.01,2013-01-22 08:08:00,
2013-01-22 03:13:00,26.9,21.0,30.08,ESE,113,1.0,3.0,78,0.00,,OVC055,0.00,VWS V14.01,2013-01-22 08:13:00,
2013-01-22 03:18:00,27.0,21.1,30.08,ESE,113,0.0,3.0,78,0.00,,OVC055,0.00,VWS V14.01,2013-01-22 08:18:00,
2013-01-22 03:23:00,27.0,21.1,30.07,ESE,113,0.0,3.0,78,0.00,,OVC055,0.00,VWS V14.01,2013-01-22 08:23:00,
2013-01-22 03:28:00,26.9,21.0,30.08,ESE,113,0.0,3.0,78,0.00,,OVC055,0.00,VWS V14.01,2013-01-22 08:28:00,
2013-01-22 03:30:00,26.9,20.4,30.08,ESE,113,0.0,3.0,76,0.00,,OVC055,0.00,VWS V14.01,2013-01-22 08:30:00,
2013-01-22 03:33:00,26.9,20.7,30.08,ESE,113,0.0,1.0,77,0.00,,OVC055,0.00,VWS V14.01,2013-01-22 08:33:00,
2013-01-22 03:38:00,27.0,20.1,30.08,ESE,113,0.0,1.0,75,0.00,,OVC055,0.00,VWS V14.01,2013-01-22 08:38:00,
2013-01-22 03:43:00,27.0,20.1,30.09,NNW,338,1.0,3.0,75,0.00,,OVC055,0.00,VWS V14.01,2013-01-22 08:43:00,
2013-01-22 03:48:00,27.0,19.8,30.08,NE,56,0.0,3.0,74,0.00,,OVC055,0.00,VWS V14.01,2013-01-22 08:48:00,
2013-01-22 03:53:00,27.0,19.8,30.08,NE,56,1.0,3.0,74,0.00,,OVC055,0.00,VWS V14.01,2013-01-22 08:53:00,
2013-01-22 03:58:00,27.0,19.5,30.08,NE,56,0.0,3.0,73,0.00,,OVC055,0.00,VWS V14.01,2013-01-22 08:58:00,
2013-01-22 04:00:00,27.0,19.5,30.08,NE,56,0.0,3.0,73,0.00,,OVC055,0.00,VWS V14.01,2013-01-22 09:00:00,
2013-01-22 04:02:00,26.9,19.1,30.07,NE,56,0.0,0.0,72,0.00,,OVC055,0.00,VWS V14.01,2013-01-22 09:02:00,
2013-01-22 04:07:00,26.9,19.4,30.07,NE,56,1.0,1.0,73,0.00,,OVC055,0.00,VWS V14.01,2013-01-22 09:07:00,
2013-01-22 04:12:00,26.8,19.3,30.08,NNE,30,0.0,3.0,73,0.00,,OVC055,0.00,VWS V14.01,2013-01-22 09:12:00,
2013-01-22 04:17:00,26.8,19.0,30.07,NNE,30,0.0,3.0,72,0.00,,OVC055,0.00,VWS V14.01,2013-01-22 09:17:00,
2013-01-22 04:22:00,26.7,18.9,30.08,NNE,19,3.0,3.0,72,0.00,,OVC055,0.00,VWS V14.01,2013-01-22 09:22:00,
2013-01-22 04:27:00,26.7,18.6,30.08,NNE,31,2.0,4.0,71,0.00,,OVC055,0.00,VWS V14.01,2013-01-22 09:27:00,
2013-01-22 04:30:00,26.7,18.2,30.08,NNE,13,3.0,4.0,70,0.00,,OVC055,0.00,VWS V14.01,2013-01-22 09:30:00,
2013-01-22 04:32:00,26.8,17.7,30.08,ENE,68,1.0,6.0,68,0.00,,OVC055,0.00,VWS V14.01,2013-01-22 09:32:00,
2013-01-22 04:37:00,27.1,17.6,30.08,NNE,33,2.0,6.0,67,0.00,,OVC055,0.00,VWS V14.01,2013-01-22 09:37:00,
2013-01-22 04:42:00,27.1,18.0,30.09,North,351,1.0,6.0,68,0.00,,OVC055,0.00,VWS V14.01,2013-01-22 09:42:00,
2013-01-22 04:47:00,26.9,17.8,30.08,North,360,0.0,6.0,68,0.00,,OVC055,0.00,VWS V14.01,2013-01-22 09:47:00,
2013-01-22 04:52:00,26.7,17.6,30.09,NNW,335,0.0,6.0,68,0.00,,OVC055,0.00,VWS V14.01,2013-01-22 09:52:00,
2013-01-22 04:57:00,26.5,16.7,30.09,NNW,335,0.0,6.0,66,0.00,,OVC055,0.00,VWS V14.01,2013-01-22 09:57:00,
2013-01-22 05:00:00,26.4,16.9,30.09,NNW,335,0.0,6.0,67,0.00,,OVC055,0.00,VWS V14.01,2013-01-22 10:00:00,
2013-01-22 05:02:00,26.3,16.9,30.09,NNW,335,0.0,1.0,67,0.00,,OVC055,0.00,VWS V14.01,2013-01-22 10:02:00,
2013-01-22 05:07:00,26.2,16.8,30.10,North,355,0.0,2.0,67,0.00,,OVC055,0.00,VWS V14.01,2013-01-22 10:07:00,
2013-01-22 05:12:00,26.1,16.7,30.10,North,355,0.0,2.0,67,0.00,,OVC055,0.00,VWS V14.01,2013-01-22 10:12:00,
2013-01-22 05:17:00,26.0,16.9,30.10,NE,56,1.0,2.0,68,0.00,,OVC055,0.00,VWS V14.01,2013-01-22 10:17:00,
2013-01-22 05:22:00,25.9,16.5,30.11,NE,55,0.0,2.0,67,0.00,,OVC055,0.00,VWS V14.01,2013-01-22 10:22:00,
2013-01-22 05:27:00,25.7,17.0,30.12,NNW,340,3.0,3.0,69,0.00,,OVC055,0.00,VWS V14.01,2013-01-22 10:27:00,
2013-01-22 05:30:00,25.7,16.6,30.12,NNW,340,0.0,4.0,68,0.00,,OVC055,0.00,VWS V14.01,2013-01-22 10:30:00,
2013-01-22 05:32:00,25.7,16.6,30.11,North,355,4.0,4.0,68,0.00,,OVC055,0.00,VWS V14.01,2013-01-22 10:32:00,
2013-01-22 05:37:00,25.7,14.9,30.11,North,355,5.0,5.0,63,0.00,,OVC055,0.00,VWS V14.01,2013-01-22 10:37:00,
2013-01-22 05:42:00,25.8,15.3,30.11,NNE,21,1.0,5.0,64,0.00,,OVC055,0.00,VWS V14.01,2013-01-22 10:42:00,
2013-01-22 05:47:00,25.7,15.2,30.12,NNE,20,3.0,5.0,64,0.00,,OVC055,0.00,VWS V14.01,2013-01-22 10:47:00,
2013-01-22 05:52:00,25.7,15.2,30.12,North,360,3.0,5.0,64,0.00,,OVC055,0.00,VWS V14.01,2013-01-22 10:52:00,
2013-01-22 05:57:00,25.6,14.8,30.13,NNE,26,3.0,7.0,63,0.00,,OVC055,0.00,VWS V14.01,2013-01-22 10:57:00,
2013-01-22 06:00:00,25.5,14.7,30.13,NNE,19,3.0,7.0,63,0.00,,OVC055,0.00,VWS V14.01,2013-01-22 11:00:00,
2013-01-22 06:02:00,25.5,14.7,30.13,NE,34,3.0,4.0,63,0.00,,OVC055,0.00,VWS V14.01,2013-01-22 11:02:00,
2013-01-22 06:07:00,25.5,15.0,30.13,NE,41,0.0,4.0,64,0.00,,OVC055,0.00,VWS V14.01,2013-01-22 11:07:00,
2013-01-22 06:12:00,25.5,14.3,30.13,NNE,17,0.0,4.0,62,0.00,,OVC055,0.00,VWS V14.01,2013-01-22 11:12:00,
2013-01-22 06:17:00,25.4,14.2,30.12,NNE,17,1.0,4.0,62,0.00,,OVC055,0.00,VWS V14.01,2013-01-22 11:17:00,
2013-01-22 06:22:00,25.2,15.1,30.12,NNE,17,0.0,4.0,65,0.00,,OVC055,0.00,VWS V14.01,2013-01-22 11:22:00,
2013-01-22 06:27:00,24.9,14.5,30.13,NNE,17,0.0,4.0,64,0.00,,OVC055,0.00,VWS V14.01,2013-01-22 11:27:00,
2013-01-22 06:30:00,24.8,14.7,30.13,NNE,17,0.0,4.0,65,0.00,,OVC055,0.00,VWS V14.01,2013-01-22 11:30:00,
2013-01-22 06:32:00,24.7,14.6,30.13,NNE,17,0.0,1.0,65,0.00,,OVC055,0.00,VWS V14.01,2013-01-22 11:32:00,
2013-01-22 06:37:00,24.4,14.7,30.13,NNE,17,0.0,1.0,66,0.00,,OVC055,0.00,VWS V14.01,2013-01-22 11:37:00,
2013-01-22 06:42:00,24.3,14.2,30.14,NNE,20,1.0,4.0,65,0.00,,OVC055,0.00,VWS V14.01,2013-01-22 11:42:00,
2013-01-22 06:47:00,24.5,14.4,30.14,NNE,29,0.0,4.0,65,0.00,,OVC055,0.00,VWS V14.01,2013-01-22 11:47:00,
2013-01-22 06:52:00,24.5,14.1,30.15,NNE,13,0.0,4.0,64,0.00,,OVC055,0.00,VWS V14.01,2013-01-22 11:52:00,
2013-01-22 06:57:00,24.4,14.0,30.15,NNE,13,1.0,4.0,64,0.00,,OVC055,0.00,VWS V14.01,2013-01-22 11:57:00,
2013-01-22 07:00:00,24.3,13.9,30.14,NNE,13,0.0,4.0,64,0.00,,OVC055,0.00,VWS V14.01,2013-01-22 12:00:00,
2013-01-22 07:02:00,24.3,13.5,30.15,NNE,13,1.0,2.0,63,0.00,,OVC055,0.00,VWS V14.01,2013-01-22 12:02:00,
2013-01-22 07:07:00,24.1,13.7,30.15,North,5,1.0,2.0,64,0.00,,OVC055,0.00,VWS V14.01,2013-01-22 12:07:00,
2013-01-22 07:12:00,23.9,14.6,30.16,North,5,1.0,2.0,67,0.00,,OVC055,0.00,VWS V14.01,2013-01-22 12:12:00,
2013-01-22 07:17:00,23.6,14.6,30.16,North,5,0.0,2.0,68,0.00,,OVC055,0.00,VWS V14.01,2013-01-22 12:17:00,
2013-01-22 07:22:00,23.7,14.7,30.17,NE,53,0.0,4.0,68,0.00,,OVC055,0.00,VWS V14.01,2013-01-22 12:22:00,
2013-01-22 07:27:00,23.9,13.9,30.17,NNE,24,1.0,4.0,65,0.00,,OVC055,0.00,VWS V14.01,2013-01-22 12:27:00,
2013-01-22 07:30:00,23.9,13.5,30.17,NNE,24,0.0,4.0,64,0.00,,OVC055,0.00,VWS V14.01,2013-01-22 12:30:00,
2013-01-22 07:32:00,24.0,12.9,30.17,ENE,64,1.0,5.0,62,0.00,,OVC055,0.00,VWS V14.01,2013-01-22 12:32:00,
2013-01-22 07:37:00,24.1,13.0,30.17,ENE,66,0.0,5.0,62,0.00,,OVC055,0.00,VWS V14.01,2013-01-22 12:37:00,
2013-01-22 07:42:00,24.1,12.6,30.17,ENE,66,1.0,5.0,61,0.00,,OVC055,0.00,VWS V14.01,2013-01-22 12:42:00,
2013-01-22 07:47:00,24.1,12.6,30.17,ENE,59,0.0,5.0,61,0.00,,OVC055,0.00,VWS V14.01,2013-01-22 12:47:00,
2013-01-22 07:52:00,24.0,12.5,30.18,NE,46,2.0,5.0,61,0.00,,OVC055,0.00,VWS V14.01,2013-01-22 12:52:00,
2013-01-22 07:57:00,23.9,12.8,30.17,NNE,32,2.0,5.0,62,0.00,,OVC055,0.00,VWS V14.01,2013-01-22 12:57:00,
2013-01-22 08:00:00,23.8,12.7,30.17,NNE,28,2.0,5.0,62,0.00,,OVC055,0.00,VWS V14.01,2013-01-22 13:00:00,
2013-01-22 08:02:00,23.8,12.7,30.17,NNE,26,2.0,3.0,62,0.00,,OVC055,0.00,VWS V14.01,2013-01-22 13:02:00,
2013-01-22 08:08:00,23.7,12.6,30.17,NNE,25,1.0,3.0,62,0.00,,OVC055,0.00,VWS V14.01,2013-01-22 13:08:00,
2013-01-22 08:13:00,23.7,12.6,30.17,NNE,25,0.0,3.0,62,0.00,,OVC055,0.00,VWS V14.01,2013-01-22 13:13:00,
2013-01-22 08:18:00,23.6,12.5,30.18,NNE,25,2.0,3.0,62,0.00,,OVC055,0.00,VWS V14.01,2013-01-22 13:18:00,
2013-01-22 08:23:00,23.6,12.9,30.18,NNE,25,0.0,3.0,63,0.00,,OVC055,0.00,VWS V14.01,2013-01-22 13:23:00,
2013-01-22 08:28:00,23.6,12.5,30.19,North,11,4.0,5.0,62,0.00,,OVC055,0.00,VWS V14.01,2013-01-22 13:28:00,
2013-01-22 08:30:00,23.7,12.2,30.19,NE,36,2.0,5.0,61,0.00,,OVC055,0.00,VWS V14.01,2013-01-22 13:30:00,
2013-01-22 08:33:00,23.9,12.1,30.19,North,5,3.0,4.0,60,0.00,,OVC055,0.00,VWS V14.01,2013-01-22 13:33:00,
2013-01-22 08:38:00,24.0,11.8,30.19,ESE,120,0.0,4.0,59,0.00,,OVC055,0.00,VWS V14.01,2013-01-22 13:38:00,
2013-01-22 08:43:00,24.2,11.2,30.20,WNW,290,3.0,4.0,57,0.00,,OVC055,0.00,VWS V14.01,2013-01-22 13:43:00,
2013-01-22 08:48:00,24.4,11.4,30.20,NE,56,1.0,7.0,57,0.00,,OVC055,0.00,VWS V14.01,2013-01-22 13:48:00,
2013-01-22 08:53:00,24.4,11.0,30.20,NW,320,0.0,7.0,56,0.00,,OVC055,0.00,VWS V14.01,2013-01-22 13:53:00,
2013-01-22 08:58:00,24.6,11.9,30.20,NE,51,4.0,7.0,58,0.00,,OVC055,0.00,VWS V14.01,2013-01-22 13:58:00,
2013-01-22 09:00:00,24.6,11.6,30.20,NE,46,1.0,7.0,57,0.00,,OVC055,0.00,VWS V14.01,2013-01-22 14:00:00,
2013-01-22 09:03:00,24.7,12.0,30.20,NE,43,1.0,3.0,58,0.00,,OVC055,0.00,VWS V14.01,2013-01-22 14:03:00,
2013-01-22 09:08:00,24.7,11.2,30.20,North,10,0.0,3.0,56,0.00,,OVC055,0.00,VWS V14.01,2013-01-22 14:08:00,
2013-01-22 09:13:00,24.7,11.6,30.20,North,10,1.0,3.0,57,0.00,,OVC055,0.00,VWS V14.01,2013-01-22 14:13:00,
2013-01-22 09:18:00,24.8,11.3,30.21,NE,50,0.0,3.0,56,0.00,,OVC055,0.00,VWS V14.01,2013-01-22 14:18:00,
2013-01-22 09:23:00,24.9,11.4,30.22,ENE,57,1.0,3.0,56,0.00,,OVC055,0.00,VWS V14.01,2013-01-22 14:23:00,
2013-01-22 09:28:00,25.0,11.1,30.22,NE,56,1.0,3.0,55,0.00,,OVC055,0.00,VWS V14.01,2013-01-22 14:28:00,
2013-01-22 09:30:00,25.0,11.1,30.22,NE,56,2.0,3.0,55,0.00,,OVC055,0.00,VWS V14.01,2013-01-22 14:30:00,
2013-01-22 09:33:00,25.1,11.2,30.22,NNE,29,3.0,4.0,55,0.00,,OVC055,0.00,VWS V14.01,2013-01-22 14:33:00,
2013-01-22 09:38:00,25.4,11.1,30.22,ENE,67,1.0,4.0,54,0.00,,OVC055,0.00,VWS V14.01,2013-01-22 14:38:00,
2013-01-22 09:43:00,25.5,11.6,30.23,NNE,31,2.0,5.0,55,0.00,,OVC055,0.00,VWS V14.01,2013-01-22 14:43:00,
2013-01-22 09:48:00,25.7,11.4,30.23,NNE,32,1.0,5.0,54,0.00,,OVC055,0.00,VWS V14.01,2013-01-22 14:48:00,
2013-01-22 09:53:00,25.9,11.6,30.24,ENE,69,1.0,5.0,54,0.00,,OVC055,0.00,VWS V14.01,2013-01-22 14:53:00,
2013-01-22 09:58:00,26.0,10.8,30.24,NE,43,2.0,5.0,52,0.00,,OVC055,0.00,VWS V14.01,2013-01-22 14:58:00,
2013-01-22 10:00:00,26.1,11.3,30.24,NE,37,0.0,5.0,53,0.00,,OVC055,0.00,VWS V14.01,2013-01-22 15:00:00,
2013-01-22 10:03:00,26.2,11.4,30.24,NE,35,1.0,3.0,53,0.00,,OVC055,0.00,VWS V14.01,2013-01-22 15:03:00,
2013-01-22 10:08:00,26.4,11.2,30.24,NNE,32,3.0,4.0,52,0.00,,OVC055,0.00,VWS V14.01,2013-01-22 15:08:00,
2013-01-22 10:13:00,26.6,11.4,30.24,NNE,31,3.0,4.0,52,0.00,,OVC055,0.00,VWS V14.01,2013-01-22 15:13:00,
2013-01-22 10:18:00,26.9,11.6,30.25,NNE,24,2.0,5.0,52,0.00,,OVC055,0.00,VWS V14.01,2013-01-22 15:18:00,
2013-01-22 10:23:00,27.3,11.6,30.25,NNE,18,0.0,5.0,51,0.00,,OVC055,0.00,VWS V14.01,2013-01-22 15:23:00,
2013-01-22 10:28:00,27.9,13.0,30.25,NE,44,1.0,5.0,53,0.00,,OVC055,0.00,VWS V14.01,2013-01-22 15:28:00,
2013-01-22 10:30:00,28.2,12.9,30.25,NE,44,0.0,5.0,52,0.00,,OVC055,0.00,VWS V14.01,2013-01-22 15:30:00,
2013-01-22 10:32:00,28.7,12.9,30.25,NE,44,1.0,2.0,51,0.00,,OVC055,0.00,VWS V14.01,2013-01-22 15:32:00,
2013-01-22 10:37:00,28.7,11.5,30.25,North,355,0.0,5.0,48,0.00,,OVC055,0.00,VWS V14.01,2013-01-22 15:37:00,
2013-01-22 10:42:00,29.1,12.8,30.25,NNE,25,3.0,5.0,50,0.00,,OVC055,0.00,VWS V14.01,2013-01-22 15:42:00,
2013-01-22 10:47:00,29.2,12.0,30.25,ENE,61,0.0,5.0,48,0.00,,OVC055,0.00,VWS V14.01,2013-01-22 15:47:00,
2013-01-22 10:52:00,29.6,12.3,30.25,ENE,60,1.0,5.0,48,0.00,,OVC055,0.00,VWS V14.01,2013-01-22 15:52:00,
2013-01-22 10:57:00,30.0,12.7,30.25,NE,44,2.0,5.0,48,0.00,,OVC055,0.00,VWS V14.01,2013-01-22 15:57:00,
2013-01-22 11:00:00,29.9,12.6,30.25,ENE,62,2.0,5.0,48,0.00,,OVC055,0.00,VWS V14.01,2013-01-22 16:00:00,
2013-01-22 11:02:00,29.6,12.3,30.26,NE,36,4.0,7.0,48,0.00,,OVC055,0.00,VWS V14.01,2013-01-22 16:02:00,
2013-01-22 11:07:00,29.2,11.0,30.26,NE,55,1.0,7.0,46,0.00,,OVC055,0.00,VWS V14.01,2013-01-22 16:07:00,
2013-01-22 11:12:00,29.9,13.1,30.26,NNE,27,1.0,7.0,49,0.00,,OVC055,0.00,VWS V14.01,2013-01-22 16:12:00,
2013-01-22 11:17:00,30.3,12.0,30.26,NE,36,0.0,7.0,46,0.00,,OVC055,0.00,VWS V14.01,2013-01-22 16:17:00,
2013-01-22 11:22:00,30.2,13.4,30.25,NNE,16,3.0,7.0,49,0.00,,OVC055,0.00,VWS V14.01,2013-01-22 16:22:00,
2013-01-22 11:28:00,30.3,12.5,30.26,North,360,0.0,7.0,47,0.00,,OVC055,0.00,VWS V14.01,2013-01-22 16:28:00,
2013-01-22 11:30:00,30.5,12.7,30.26,North,360,0.0,7.0,47,0.00,,OVC055,0.00,VWS V14.01,2013-01-22 16:30:00,
2013-01-22 11:33:00,30.7,12.9,30.26,NE,53,3.0,5.0,47,0.00,,OVC055,0.00,VWS V14.01,2013-01-22 16:33:00,
2013-01-22 11:38:00,30.8,12.5,30.26,NNE,26,0.0,5.0,46,0.00,,OVC055,0.00,VWS V14.01,2013-01-22 16:38:00,
2013-01-22 11:43:00,31.1,13.2,30.26,North,9,6.0,6.0,47,0.00,,OVC055,0.00,VWS V14.01,2013-01-22 16:43:00,
2013-01-22 11:48:00,31.2,13.8,30.25,NNE,18,2.0,6.0,48,0.00,,OVC055,0.00,VWS V14.01,2013-01-22 16:48:00,
2013-01-22 11:53:00,31.5,14.1,30.25,NNW,342,1.0,6.0,48,0.00,,OVC055,0.00,VWS V14.01,2013-01-22 16:53:00,
2013-01-22 11:58:00,32.3,13.9,30.25,NE,42,0.0,6.0,46,0.00,,OVC055,0.00,VWS V14.01,2013-01-22 16:58:00,
2013-01-22 12:00:00,32.4,12.9,30.25,SSE,148,1.0,6.0,44,0.00,,OVC055,0.00,VWS V14.01,2013-01-22 17:00:00,
2013-01-22 12:03:00,32.6,12.6,30.25,South,175,2.0,4.0,43,0.00,,OVC055,0.00,VWS V14.01,2013-01-22 17:03:00,
2013-01-22 12:08:00,33.0,13.5,30.24,NNW,344,2.0,4.0,44,0.00,,OVC055,0.00,VWS V14.01,2013-01-22 17:08:00,
2013-01-22 12:13:00,33.5,13.4,30.24,NE,41,2.0,4.0,43,0.00,,OVC055,0.00,VWS V14.01,2013-01-22 17:13:00,
2013-01-22 12:18:00,33.6,13.5,30.24,ENE,59,3.0,4.0,43,0.00,,OVC055,0.00,VWS V14.01,2013-01-22 17:18:00,
2013-01-22 12:23:00,33.2,13.1,30.23,NE,51,1.0,5.0,43,0.00,,OVC055,0.00,VWS V14.01,2013-01-22 17:23:00,
2013-01-22 12:28:00,33.1,13.1,30.23,ENE,69,1.0,5.0,43,0.00,,OVC055,0.00,VWS V14.01,2013-01-22 17:28:00,
2013-01-22 12:30:00,33.2,13.1,30.23,ENE,68,0.0,5.0,43,0.00,,OVC055,0.00,VWS V14.01,2013-01-22 17:30:00,
2013-01-22 12:33:00,33.6,14.0,30.23,North,9,2.0,4.0,44,0.00,,OVC055,0.00,VWS V14.01,2013-01-22 17:33:00,
2013-01-22 12:38:00,34.2,14.1,30.23,North,355,0.0,4.0,43,0.00,,OVC055,0.00,VWS V14.01,2013-01-22 17:38:00,
2013-01-22 12:43:00,34.1,14.0,30.23,NNE,24,1.0,7.0,43,0.00,,OVC055,0.00,VWS V14.01,2013-01-22 17:43:00,
2013-01-22 12:48:00,33.9,14.8,30.22,North,355,3.0,7.0,45,0.00,,OVC055,0.00,VWS V14.01,2013-01-22 17:48:00,
2013-01-22 12:53:00,33.9,13.8,30.23,NNE,32,2.0,8.0,43,0.00,,OVC055,0.00,VWS V14.01,2013-01-22 17:53:00,
2013-01-22 12:58:00,34.1,14.5,30.22,NNE,24,1.0,8.0,44,0.00,,OVC055,0.00,VWS V14.01,2013-01-22 17:58:00,
2013-01-22 13:00:00,34.1,14.0,30.22,North,360,0.0,8.0,43,0.00,,OVC055,0.00,VWS V14.01,2013-01-22 18:00:00,
2013-01-22 13:03:00,34.2,14.1,30.22,NNW,348,4.0,5.0,43,0.00,,OVC055,0.00,VWS V14.01,2013-01-22 18:03:00,
2013-01-22 13:08:00,34.5,14.9,30.22,ENE,59,1.0,5.0,44,0.00,,OVC055,0.00,VWS V14.01,2013-01-22 18:08:00,
2013-01-22 13:13:00,35.0,15.8,30.22,NE,34,2.0,6.0,45,0.00,,OVC055,0.00,VWS V14.01,2013-01-22 18:13:00,
2013-01-22 13:18:00,35.3,16.6,30.21,NE,34,4.0,6.0,46,0.00,,OVC055,0.00,VWS V14.01,2013-01-22 18:18:00,
2013-01-22 13:23:00,35.5,15.8,30.21,ENE,59,2.0,6.0,44,0.00,,OVC055,0.00,VWS V14.01,2013-01-22 18:23:00,
2013-01-22 13:28:00,35.5,16.8,30.22,North,11,6.0,6.0,46,0.00,,OVC055,0.00,VWS V14.01,2013-01-22 18:28:00,
2013-01-22 13:30:00,35.5,15.8,30.22,NNE,20,9.0,9.0,44,0.00,,OVC055,0.00,VWS V14.01,2013-01-22 18:30:00,
2013-01-22 13:33:00,35.4,14.6,30.21,NNE,33,6.0,9.0,42,0.00,,OVC055,0.00,VWS V14.01,2013-01-22 18:33:00,
2013-01-22 13:38:00,35.6,16.9,30.22,NE,43,5.0,10.0,46,0.00,,OVC055,0.00,VWS V14.01,2013-01-22 18:38:00,
2013-01-22 13:43:00,35.4,16.2,30.21,North,5,9.0,10.0,45,0.00,,OVC055,0.00,VWS V14.01,2013-01-22 18:43:00,
2013-01-22 13:48:00,35.8,15.5,30.20,NNE,28,2.0,10.0,43,0.00,,OVC055,0.00,VWS V14.01,2013-01-22 18:48:00,
2013-01-22 13:53:00,36.0,15.1,30.20,NE,50,2.0,10.0,42,0.00,,OVC055,0.00,VWS V14.01,2013-01-22 18:53:00,
2013-01-22 13:58:00,35.9,16.1,30.20,NE,42,7.0,10.0,44,0.00,,OVC055,0.00,VWS V14.01,2013-01-22 18:58:00,
2013-01-22 14:00:00,36.1,15.8,30.20,NE,39,3.0,10.0,43,0.00,,OVC055,0.00,VWS V14.01,2013-01-22 19:00:00,
2013-01-22 14:03:00,36.2,16.4,30.20,NE,46,8.0,8.0,44,0.00,,OVC055,0.00,VWS V14.01,2013-01-22 19:03:00,
2013-01-22 14:08:00,36.6,15.1,30.20,NNE,30,7.0,10.0,41,0.00,,OVC055,0.00,VWS V14.01,2013-01-22 19:08:00,
2013-01-22 14:13:00,36.8,17.0,30.21,North,5,8.0,10.0,44,0.00,,OVC055,0.00,VWS V14.01,2013-01-22 19:13:00,
2013-01-22 14:18:00,36.8,15.3,30.21,North,5,11.0,11.0,41,0.00,,OVC055,0.00,VWS V14.01,2013-01-22 19:18:00,
2013-01-22 14:23:00,36.4,14.4,30.20,North,355,7.0,11.0,40,0.00,,OVC055,0.00,VWS V14.01,2013-01-22 19:23:00,
2013-01-22 14:28:00,36.7,16.9,30.20,North,9,9.0,11.0,44,0.00,,OVC055,0.00,VWS V14.01,2013-01-22 19:28:00,
2013-01-22 14:30:00,36.9,15.4,30.20,NE,35,6.0,11.0,41,0.00,,OVC055,0.00,VWS V14.01,2013-01-22 19:30:00,
2013-01-22 14:33:00,36.7,14.7,30.20,NNE,26,5.0,9.0,40,0.00,,OVC055,0.00,VWS V14.01,2013-01-22 19:33:00,
2013-01-22 14:38:00,36.6,14.6,30.21,North,9,8.0,12.0,40,0.00,,OVC055,0.00,VWS V14.01,2013-01-22 19:38:00,
2013-01-22 14:43:00,36.5,14.5,30.21,North,5,7.0,12.0,40,0.00,,OVC055,0.00,VWS V14.01,2013-01-22 19:43:00,
2013-01-22 14:48:00,36.6,13.4,30.20,NE,34,5.0,12.0,38,0.00,,OVC055,0.00,VWS V14.01,2013-01-22 19:48:00,
2013-01-22 14:53:00,36.5,13.3,30.21,NE,41,8.0,12.0,38,0.00,,OVC055,0.00,VWS V14.01,2013-01-22 19:53:00,
2013-01-22 14:58:00,36.2,13.1,30.20,NNE,19,6.0,14.0,38,0.00,,OVC055,0.00,VWS V14.01,2013-01-22 19:58:00,
2013-01-22 15:00:00,36.2,13.1,30.20,NE,35,6.0,14.0,38,0.00,,OVC055,0.00,VWS V14.01,2013-01-22 20:00:00,
2013-01-22 15:03:00,36.1,13.0,30.20,NNE,19,6.0,12.0,38,0.00,,OVC055,0.00,VWS V14.01,2013-01-22 20:03:00,
2013-01-22 15:08:00,36.0,12.3,30.21,NNE,17,8.0,14.0,37,0.00,,OVC055,0.00,VWS V14.01,2013-01-22 20:08:00,
2013-01-22 15:13:00,36.1,13.0,30.20,NE,38,8.0,14.0,38,0.00,,OVC055,0.00,VWS V14.01,2013-01-22 20:13:00,
2013-01-22 15:18:00,36.0,11.0,30.20,NE,49,5.0,14.0,35,0.00,,OVC055,0.00,VWS V14.01,2013-01-22 20:18:00,
2013-01-22 15:23:00,35.8,11.5,30.20,NE,46,6.0,14.0,36,0.00,,OVC055,0.00,VWS V14.01,2013-01-22 20:23:00,
2013-01-22 15:28:00,35.5,10.6,30.20,NNE,32,7.0,14.0,35,0.00,,OVC055,0.00,VWS V14.01,2013-01-22 20:28:00,
2013-01-22 15:30:00,35.5,11.8,30.21,NNE,15,9.0,14.0,37,0.00,,OVC055,0.00,VWS V14.01,2013-01-22 20:30:00,
2013-01-22 15:33:00,35.6,11.3,30.21,NNE,30,7.0,9.0,36,0.00,,OVC055,0.00,VWS V14.01,2013-01-22 20:33:00,
2013-01-22 15:38:00,35.6,11.3,30.21,NE,38,8.0,10.0,36,0.00,,OVC055,0.00,VWS V14.01,2013-01-22 20:38:00,
2013-01-22 15:43:00,35.2,10.9,30.21,NE,34,9.0,10.0,36,0.00,,OVC055,0.00,VWS V14.01,2013-01-22 20:43:00,
2013-01-22 15:48:00,35.0,10.1,30.22,North,10,4.0,10.0,35,0.00,,OVC055,0.00,VWS V14.01,2013-01-22 20:48:00,
2013-01-22 15:53:00,34.6,9.8,30.22,NNE,25,5.0,10.0,35,0.00,,OVC055,0.00,VWS V14.01,2013-01-22 20:53:00,
2013-01-22 15:58:00,34.5,10.9,30.22,NNE,13,11.0,11.0,37,0.00,,OVC055,0.00,VWS V14.01,2013-01-22 20:58:00,
2013-01-22 16:00:00,34.4,9.6,30.21,NNE,29,7.0,11.0,35,0.00,,OVC055,0.00,VWS V14.01,2013-01-22 21:00:00,
2013-01-22 16:03:00,34.3,10.1,30.21,NNE,18,9.0,9.0,36,0.00,,OVC055,0.00,VWS V14.01,2013-01-22 21:03:00,
2013-01-22 16:08:00,34.4,8.9,30.21,North,11,4.0,11.0,34,0.00,,OVC055,0.00,VWS V14.01,2013-01-22 21:08:00,
2013-01-22 16:13:00,34.4,8.9,30.22,North,5,6.0,12.0,34,0.00,,OVC055,0.00,VWS V14.01,2013-01-22 21:13:00,
2013-01-22 16:18:00,34.2,10.1,30.22,NNE,20,5.0,12.0,36,0.00,,OVC055,0.00,VWS V14.01,2013-01-22 21:18:00,
2013-01-22 16:23:00,34.1,8.7,30.22,NNE,23,4.0,12.0,34,0.00,,OVC055,0.00,VWS V14.01,2013-01-22 21:23:00,
2013-01-22 16:28:00,33.8,8.4,30.24,NNE,28,6.0,12.0,34,0.00,,OVC055,0.00,VWS V14.01,2013-01-22 21:28:00,
2013-01-22 16:30:00,33.7,9.0,30.23,NNE,12,6.0,12.0,35,0.00,,OVC055,0.00,VWS V14.01,2013-01-22 21:30:00,
2013-01-22 16:31:00,33.6,8.9,30.23,NNE,27,7.0,9.0,35,0.00,,OVC055,0.00,VWS V14.01,2013-01-22 21:31:00,
2013-01-22 16:36:00,33.4,8.1,30.24,North,355,7.0,11.0,34,0.00,,OVC055,0.00,VWS V14.01,2013-01-22 21:36:00,
2013-01-22 16:41:00,33.3,8.6,30.24,NNE,18,6.0,11.0,35,0.00,,OVC055,0.00,VWS V14.01,2013-01-22 21:41:00,
2013-01-22 16:46:00,33.2,7.2,30.24,North,5,7.0,11.0,33,0.00,,OVC055,0.00,VWS V14.01,2013-01-22 21:46:00,
2013-01-22 16:51:00,33.0,7.7,30.24,NNE,13,9.0,12.0,34,0.00,,OVC055,0.00,VWS V14.01,2013-01-22 21:51:00,
2013-01-22 16:56:00,32.9,7.6,30.24,NNW,347,7.0,12.0,34,0.00,,OVC055,0.00,VWS V14.01,2013-01-22 21:56:00,
2013-01-22 17:00:00,32.7,6.8,30.25,North,9,8.0,12.0,33,0.00,,OVC055,0.00,VWS V14.01,2013-01-22 22:00:00,
2013-01-22 17:01:00,32.6,6.7,30.25,NNE,23,6.0,10.0,33,0.00,,OVC055,0.00,VWS V14.01,2013-01-22 22:01:00,
2013-01-22 17:06:00,32.4,6.5,30.25,NNE,26,8.0,10.0,33,0.00,,OVC055,0.00,VWS V14.01,2013-01-22 22:06:00,
2013-01-22 17:11:00,32.2,7.6,30.25,NE,35,8.0,11.0,35,0.00,,OVC055,0.00,VWS V14.01,2013-01-22 22:11:00,
2013-01-22 17:16:00,32.0,5.5,30.25,North,355,7.0,11.0,32,0.00,,OVC055,0.00,VWS V14.01,2013-01-22 22:16:00,
2013-01-22 17:21:00,31.7,6.6,30.25,NNE,32,4.0,11.0,34,0.00,,OVC055,0.00,VWS V14.01,2013-01-22 22:21:00,
2013-01-22 17:26:00,31.6,6.5,30.25,North,355,4.0,11.0,34,0.00,,OVC055,0.00,VWS V14.01,2013-01-22 22:26:00,
2013-01-22 17:30:00,31.5,5.7,30.26,NNE,13,2.0,11.0,33,0.00,,OVC055,0.00,VWS V14.01,2013-01-22 22:30:00,
2013-01-22 17:31:00,31.5,5.7,30.26,North,5,3.0,4.0,33,0.00,,OVC055,0.00,VWS V14.01,2013-01-22 22:31:00,
2013-01-22 17:36:00,31.2,6.8,30.26,NNE,28,5.0,6.0,35,0.00,,OVC055,0.00,VWS V14.01,2013-01-22 22:36:00,
2013-01-22 17:41:00,31.0,5.9,30.26,NNE,31,4.0,8.0,34,0.00,,OVC055,0.00,VWS V14.01,2013-01-22 22:41:00,
2013-01-22 17:46:00,30.8,6.4,30.26,NE,38,2.0,8.0,35,0.00,,OVC055,0.00,VWS V14.01,2013-01-22 22:46:00,
2013-01-22 17:51:00,30.6,4.9,30.26,NE,34,6.0,8.0,33,0.00,,OVC055,0.00,VWS V14.01,2013-01-22 22:51:00,
2013-01-22 17:56:00,30.4,5.4,30.26,NNE,30,3.0,8.0,34,0.00,,OVC055,0.00,VWS V14.01,2013-01-22 22:56:00,
2013-01-22 18:00:00,30.3,4.7,30.26,NE,36,2.0,8.0,33,0.00,,OVC055,0.00,VWS V14.01,2013-01-22 23:00:00,
2013-01-22 18:01:00,30.2,5.2,30.26,NNE,15,2.0,3.0,34,0.00,,OVC055,0.00,VWS V14.01,2013-01-22 23:01:00,
2013-01-22 18:06:00,30.0,5.1,30.26,North,9,7.0,7.0,34,0.00,,OVC055,0.00,VWS V14.01,2013-01-22 23:06:00,
2013-01-22 18:11:00,29.7,5.4,30.26,NE,44,5.0,7.0,35,0.00,,OVC055,0.00,VWS V14.01,2013-01-22 23:11:00,
2013-01-22 18:16:00,29.6,4.7,30.26,NNE,31,3.0,7.0,34,0.00,,OVC055,0.00,VWS V14.01,2013-01-22 23:16:00,
2013-01-22 18:21:00,29.6,4.0,30.26,North,5,2.0,7.0,33,0.00,,OVC055,0.00,VWS V14.01,2013-01-22 23:21:00,
2013-01-22 18:26:00,29.4,4.5,30.26,North,355,4.0,7.0,34,0.00,,OVC055,0.00,VWS V14.01,2013-01-22 23:26:00,
2013-01-22 18:30:00,29.3,3.8,30.26,North,360,2.0,7.0,33,0.00,,OVC055,0.00,VWS V14.01,2013-01-22 23:30:00,
2013-01-22 18:31:00,29.3,4.4,30.26,NNE,25,3.0,4.0,34,0.00,,OVC055,0.00,VWS V14.01,2013-01-22 23:31:00,
2013-01-22 18:36:00,29.1,4.2,30.26,NE,34,4.0,7.0,34,0.00,,OVC055,0.00,VWS V14.01,2013-01-22 23:36:00,
2013-01-22 18:41:00,29.0,4.8,30.26,NNE,12,6.0,7.0,35,0.00,,OVC055,0.00,VWS V14.01,2013-01-22 23:41:00,
2013-01-22 18:46:00,28.9,4.1,30.26,North,5,2.0,7.0,34,0.00,,OVC055,0.00,VWS V14.01,2013-01-22 23:46:00,
2013-01-22 18:50:00,28.7,3.9,30.26,North,9,4.0,7.0,34,0.00,,OVC055,0.00,VWS V14.01,2013-01-22 23:50:00,
2013-01-22 18:55:00,28.6,3.8,30.27,NNE,13,4.0,7.0,34,0.00,,OVC055,0.00,VWS V14.01,2013-01-22 23:55:00,
2013-01-22 19:00:00,28.3,4.2,30.26,NE,41,4.0,4.0,35,0.00,,OVC055,0.00,VWS V14.01,2013-01-23 00:00:00,
2013-01-22 19:05:00,28.2,4.1,30.26,NNE,14,3.0,5.0,35,0.00,,OVC055,0.00,VWS V14.01,2013-01-23 00:05:00,
2013-01-22 19:10:00,28.1,4.0,30.26,NNE,24,4.0,6.0,35,0.00,,OVC055,0.00,VWS V14.01,2013-01-23 00:10:00,
2013-01-22 19:15:00,28.1,4.6,30.26,NNE,23,1.0,7.0,36,0.00,,OVC055,0.00,VWS V14.01,2013-01-23 00:15:00,
2013-01-22 19:20:00,27.9,4.4,30.26,North,351,4.0,7.0,36,0.00,,OVC055,0.00,VWS V14.01,2013-01-23 00:20:00,
2013-01-22 19:25:00,27.8,4.3,30.26,NNE,32,2.0,7.0,36,0.00,,OVC055,0.00,VWS V14.01,2013-01-23 00:25:00,
2013-01-22 19:30:00,27.6,5.3,30.27,NNE,31,4.0,4.0,38,0.00,,OVC055,0.00,VWS V14.01,2013-01-23 00:30:00,
2013-01-22 19:35:00,27.4,4.6,30.27,NNE,32,4.0,5.0,37,0.00,,OVC055,0.00,VWS V14.01,2013-01-23 00:35:00,
2013-01-22 19:40:00,27.3,5.6,30.28,NNE,17,5.0,5.0,39,0.00,,OVC055,0.00,VWS V14.01,2013-01-23 00:40:00,
2013-01-22 19:45:00,27.1,4.3,30.28,NNE,28,4.0,6.0,37,0.00,,OVC055,0.00,VWS V14.01,2013-01-23 00:45:00,
2013-01-22 19:50:00,27.1,4.3,30.28,NNE,23,3.0,6.0,37,0.00,,OVC055,0.00,VWS V14.01,2013-01-23 00:50:00,
2013-01-22 19:55:00,27.0,4.2,30.28,NNE,31,5.0,6.0,37,0.00,,OVC055,0.00,VWS V14.01,2013-01-23 00:55:00,
2013-01-22 20:00:00,26.9,5.3,30.28,NNE,32,3.0,3.0,39,0.00,,OVC055,0.00,VWS V14.01,2013-01-23 01:00:00,
2013-01-22 20:05:00,26.7,5.1,30.29,NE,42,4.0,6.0,39,0.00,,OVC055,0.00,VWS V14.01,2013-01-23 01:05:00,
2013-01-22 20:10:00,26.8,4.0,30.29,NNE,17,3.0,6.0,37,0.00,,OVC055,0.00,VWS V14.01,2013-01-23 01:10:00,
2013-01-22 20:15:00,26.8,4.0,30.29,NNE,15,2.0,6.0,37,0.00,,OVC055,0.00,VWS V14.01,2013-01-23 01:15:00,
2013-01-22 20:20:00,26.7,3.9,30.30,North,9,1.0,6.0,37,0.00,,OVC055,0.00,VWS V14.01,2013-01-23 01:20:00,
2013-01-22 20:25:00,26.6,4.4,30.29,NE,36,2.0,6.0,38,0.00,,OVC055,0.00,VWS V14.01,2013-01-23 01:25:00,
2013-01-22 20:30:00,26.4,4.2,30.30,North,11,4.0,4.0,38,0.00,,OVC055,0.00,VWS V14.01,2013-01-23 01:30:00,
2013-01-22 20:35:00,26.3,4.2,30.30,NNE,19,0.0,4.0,38,0.00,,OVC055,0.00,VWS V14.01,2013-01-23 01:35:00,
2013-01-22 20:40:00,26.3,4.2,30.30,NNE,26,2.0,4.0,38,0.00,,OVC055,0.00,VWS V14.01,2013-01-23 01:40:00,
2013-01-22 20:45:00,26.2,4.1,30.30,NNE,12,1.0,4.0,38,0.00,,OVC055,0.00,VWS V14.01,2013-01-23 01:45:00,
2013-01-22 20:50:00,26.1,4.5,30.30,North,355,3.0,4.0,39,0.00,,OVC055,0.00,VWS V14.01,2013-01-23 01:50:00,
2013-01-22 20:55:00,26.0,3.9,30.30,North,5,3.0,4.0,38,0.00,,OVC055,0.00,VWS V14.01,2013-01-23 01:55:00,
2013-01-22 21:00:00,25.8,5.9,30.30,NNE,26,3.0,4.0,42,0.00,,OVC055,0.00,VWS V14.01,2013-01-23 02:00:00,
2013-01-22 21:05:00,25.5,5.1,30.30,North,5,2.0,4.0,41,0.00,,OVC055,0.00,VWS V14.01,2013-01-23 02:05:00,
2013-01-22 21:10:00,25.5,4.6,30.30,North,11,1.0,4.0,40,0.00,,OVC055,0.00,VWS V14.01,2013-01-23 02:10:00,
2013-01-22 21:15:00,25.5,5.1,30.30,North,5,3.0,6.0,41,0.00,,OVC055,0.00,VWS V14.01,2013-01-23 02:15:00,
2013-01-22 21:20:00,25.5,4.6,30.30,NNE,22,3.0,6.0,40,0.00,,OVC055,0.00,VWS V14.01,2013-01-23 02:20:00,
2013-01-22 21:25:00,25.4,5.0,30.29,NNE,27,0.0,6.0,41,0.00,,OVC055,0.00,VWS V14.01,2013-01-23 02:25:00,
2013-01-22 21:30:00,25.4,4.5,30.29,North,351,4.0,4.0,40,0.00,,OVC055,0.00,VWS V14.01,2013-01-23 02:30:00,
2013-01-22 21:35:00,25.3,4.9,30.30,North,350,1.0,5.0,41,0.00,,OVC055,0.00,VWS V14.01,2013-01-23 02:35:00,
2013-01-22 21:40:00,25.2,5.9,30.30,North,350,1.0,5.0,43,0.00,,OVC055,0.00,VWS V14.01,2013-01-23 02:40:00,
2013-01-22 21:45:00,25.0,5.2,30.30,North,350,1.0,5.0,42,0.00,,OVC055,0.00,VWS V14.01,2013-01-23 02:45:00,
2013-01-22 21:50:00,24.9,5.1,30.30,North,5,2.0,5.0,42,0.00,,OVC055,0.00,VWS V14.01,2013-01-23 02:50:00,
2013-01-22 21:55:00,24.7,4.9,30.31,North,355,0.0,5.0,42,0.00,,OVC055,0.00,VWS V14.01,2013-01-23 02:55:00,
2013-01-22 22:00:00,24.7,4.9,30.31,North,360,2.0,3.0,42,0.00,,OVC055,0.00,VWS V14.01,2013-01-23 03:00:00,
2013-01-22 22:05:00,24.5,5.2,30.31,NNE,23,3.0,4.0,43,0.00,,OVC055,0.00,VWS V14.01,2013-01-23 03:05:00,
2013-01-22 22:10:00,24.4,5.6,30.31,North,355,3.0,4.0,44,0.00,,OVC055,0.00,VWS V14.01,2013-01-23 03:10:00,
2013-01-22 22:15:00,24.3,6.0,30.31,NNE,19,1.0,5.0,45,0.00,,OVC055,0.00,VWS V14.01,2013-01-23 03:15:00,
2013-01-22 22:20:00,24.3,6.0,30.31,NNE,26,1.0,5.0,45,0.00,,OVC055,0.00,VWS V14.01,2013-01-23 03:20:00,
2013-01-22 22:25:00,24.2,5.9,30.31,NNE,26,2.0,5.0,45,0.00,,OVC055,0.00,VWS V14.01,2013-01-23 03:25:00,
2013-01-22 22:30:00,24.2,5.4,30.31,North,5,4.0,4.0,44,0.00,,OVC055,0.00,VWS V14.01,2013-01-23 03:30:00,
2013-01-22 22:35:00,24.1,5.8,30.31,North,360,2.0,4.0,45,0.00,,OVC055,0.00,VWS V14.01,2013-01-23 03:35:00,
2013-01-22 22:40:00,23.9,6.1,30.32,North,355,2.0,4.0,46,0.00,,OVC055,0.00,VWS V14.01,2013-01-23 03:40:00,
2013-01-22 22:45:00,23.9,5.7,30.31,North,360,1.0,4.0,45,0.00,,OVC055,0.00,VWS V14.01,2013-01-23 03:45:00,
2013-01-22 22:50:00,23.9,6.1,30.32,North,360,0.0,4.0,46,0.00,,OVC055,0.00,VWS V14.01,2013-01-23 03:50:00,
2013-01-22 22:55:00,23.8,6.1,30.31,North,355,2.0,4.0,46,0.00,,OVC055,0.00,VWS V14.01,2013-01-23 03:55:00,
2013-01-22 23:00:00,23.8,6.5,30.32,North,355,2.0,2.0,47,0.00,,OVC055,0.00,VWS V14.01,2013-01-23 04:00:00,
2013-01-22 23:05:00,23.7,6.4,30.32,North,355,0.0,4.0,47,0.00,,OVC055,0.00,VWS V14.01,2013-01-23 04:05:00,
2013-01-22 23:10:00,23.5,6.2,30.32,North,355,1.0,4.0,47,0.00,,OVC055,0.00,VWS V14.01,2013-01-23 04:10:00,
2013-01-22 23:15:00,23.3,6.5,30.32,North,355,1.0,4.0,48,0.00,,OVC055,0.00,VWS V14.01,2013-01-23 04:15:00,
2013-01-22 23:20:00,23.2,6.4,30.32,North,355,1.0,4.0,48,0.00,,OVC055,0.00,VWS V14.01,2013-01-23 04:20:00,
2013-01-22 23:25:00,23.1,7.2,30.32,North,355,1.0,4.0,50,0.00,,OVC055,0.00,VWS V14.01,2013-01-23 04:25:00,
2013-01-22 23:30:00,22.9,7.9,30.32,North,355,1.0,2.0,52,0.00,,OVC055,0.00,VWS V14.01,2013-01-23 04:30:00,
2013-01-22 23:35:00,22.8,8.2,30.32,North,355,2.0,2.0,53,0.00,,OVC055,0.00,VWS V14.01,2013-01-23 04:35:00,
2013-01-22 23:40:00,22.7,7.7,30.32,North,355,2.0,2.0,52,0.00,,OVC055,0.00,VWS V14.01,2013-01-23 04:40:00,
2013-01-22 23:45:00,22.7,7.3,30.33,North,355,1.0,4.0,51,0.00,,OVC055,0.00,VWS V14.01,2013-01-23 04:45:00,
2013-01-22 23:50:00,22.8,7.0,30.32,North,355,0.0,4.0,50,0.00,,OVC055,0.00,VWS V14.01,2013-01-23 04:50:00,
2013-01-22 23:55:00,22.8,7.4,30.32,North,355,0.0,4.0,51,0.00,,OVC055,0.00,VWS V14.01,2013-01-23 04:55:00,